Time,TemperatureF,DewpointF,PressureIn,WindDirection,WindDirectionDegrees,WindSpeedMPH,WindSpeedGustMPH,Humidity,HourlyPrecipIn,Conditions,Clouds,dailyrainin,SoftwareType,DateUTC
2013-02-22 00:02:00,46.2,38.0,29.67,North,0,0.0,0.0,73,0.00,RA,,0.00,WeatherDisplay:10.37,2013-02-22 06:02:00,
2013-02-22 00:07:00,46.0,37.9,29.67,North,0,0.0,0.0,73,0.00,RA,,0.00,WeatherDisplay:10.37,2013-02-22 06:07:00,
2013-02-22 00:12:00,45.9,38.0,29.66,North,0,0.0,0.0,74,0.00,CLR,,0.00,WeatherDisplay:10.37,2013-02-22 06:12:00,
2013-02-22 00:17:00,45.7,37.9,29.66,North,0,0.0,0.0,74,0.00,CLR,,0.00,WeatherDisplay:10.37,2013-02-22 06:17:00,
2013-02-22 00:22:00,45.5,37.7,29.66,North,0,0.0,0.0,74,0.00,CLR,,0.00,WeatherDisplay:10.37,2013-02-22 06:22:00,
2013-02-22 00:27:00,45.3,37.5,29.67,North,0,0.0,0.0,74,0.00,CLR,,0.00,WeatherDisplay:10.37,2013-02-22 06:27:00,
2013-02-22 00:32:00,45.3,37.5,29.68,North,0,0.0,0.0,74,0.00,CLR,,0.00,WeatherDisplay:10.37,2013-02-22 06:32:00,
2013-02-22 00:37:00,45.1,37.3,29.67,North,0,0.0,0.0,74,0.00,CLR,,0.00,WeatherDisplay:10.37,2013-02-22 06:37:00,
2013-02-22 00:42:00,45.0,37.2,29.67,North,0,0.0,0.0,74,0.00,CLR,,0.00,WeatherDisplay:10.37,2013-02-22 06:42:00,
2013-02-22 00:47:00,44.6,36.8,29.67,North,0,0.0,0.0,74,0.00,CLR,,0.00,WeatherDisplay:10.37,2013-02-22 06:47:00,
2013-02-22 00:52:00,44.4,37.0,29.67,North,0,0.0,0.0,75,0.00,CLR,,0.00,WeatherDisplay:10.37,2013-02-22 06:52:00,
2013-02-22 00:57:00,44.2,36.8,29.68,North,0,0.0,0.0,75,0.00,CLR,,0.00,WeatherDisplay:10.37,2013-02-22 06:57:00,
2013-02-22 01:02:00,44.2,36.8,29.68,North,0,0.0,0.0,75,0.00,CLR,,0.00,WeatherDisplay:10.37,2013-02-22 07:02:00,
2013-02-22 01:07:00,44.1,36.6,29.68,North,0,0.0,0.0,75,0.00,CLR,,0.00,WeatherDisplay:10.37,2013-02-22 07:07:00,
2013-02-22 01:12:00,43.9,36.1,29.68,North,0,0.0,0.0,74,0.00,CLR,,0.00,WeatherDisplay:10.37,2013-02-22 07:12:00,
2013-02-22 01:17:00,43.7,36.3,29.67,North,0,0.0,0.0,75,0.00,CLR,,0.00,WeatherDisplay:10.37,2013-02-22 07:17:00,
2013-02-22 01:22:00,43.5,36.1,29.67,North,0,0.0,0.0,75,0.00,CLR,,0.00,WeatherDisplay:10.37,2013-02-22 07:22:00,
2013-02-22 01:27:00,43.3,36.3,29.68,North,0,0.0,0.0,76,0.00,CLR,,0.00,WeatherDisplay:10.37,2013-02-22 07:27:00,
2013-02-22 01:32:00,43.2,36.1,29.68,North,0,0.0,0.0,76,0.00,CLR,,0.00,WeatherDisplay:10.37,2013-02-22 07:32:00,
2013-02-22 01:37:00,43.2,36.1,29.69,North,0,0.0,0.0,76,0.00,CLR,,0.00,WeatherDisplay:10.37,2013-02-22 07:37:00,
2013-02-22 01:42:00,42.8,36.1,29.68,North,0,0.0,0.0,77,0.00,CLR,,0.00,WeatherDisplay:10.37,2013-02-22 07:42:00,
2013-02-22 01:47:00,42.6,35.9,29.69,North,0,0.0,0.0,77,0.00,CLR,,0.00,WeatherDisplay:10.37,2013-02-22 07:47:00,
2013-02-22 01:52:00,42.4,35.7,29.69,North,0,0.0,0.0,77,0.00,CLR,,0.00,WeatherDisplay:10.37,2013-02-22 07:52:00,
2013-02-22 01:57:00,42.3,35.9,29.69,North,0,0.0,0.0,78,0.00,CLR,,0.00,WeatherDisplay:10.37,2013-02-22 07:57:00,
2013-02-22 02:02:00,42.1,35.7,29.70,North,0,0.0,0.0,78,0.00,CLR,,0.00,WeatherDisplay:10.37,2013-02-22 08:02:00,
2013-02-22 02:07:00,41.9,35.2,29.70,North,0,0.0,0.0,77,0.00,CLR,,0.00,WeatherDisplay:10.37,2013-02-22 08:07:00,
2013-02-22 02:12:00,41.9,35.5,29.71,North,0,0.0,0.0,78,0.00,CLR,,0.00,WeatherDisplay:10.37,2013-02-22 08:12:00,
2013-02-22 02:17:00,41.5,35.5,29.71,North,0,0.0,0.0,79,0.00,CLR,,0.00,WeatherDisplay:10.37,2013-02-22 08:17:00,
2013-02-22 02:22:00,41.4,35.7,29.71,North,0,0.0,0.0,80,0.00,CLR,,0.00,WeatherDisplay:10.37,2013-02-22 08:22:00,
2013-02-22 02:27:00,41.0,35.6,29.71,North,0,0.0,0.0,81,0.00,CLR,,0.00,WeatherDisplay:10.37,2013-02-22 08:27:00,
2013-02-22 02:32:00,40.8,35.4,29.70,North,0,0.0,0.0,81,0.00,CLR,,0.00,WeatherDisplay:10.37,2013-02-22 08:32:00,
2013-02-22 02:37:00,40.6,35.3,29.69,North,0,0.0,0.0,81,0.00,CLR,,0.00,WeatherDisplay:10.37,2013-02-22 08:37:00,
2013-02-22 02:42:00,40.3,35.2,29.69,North,0,0.0,0.0,82,0.00,CLR,,0.00,WeatherDisplay:10.37,2013-02-22 08:42:00,
2013-02-22 02:47:00,40.5,35.1,29.69,North,0,0.0,0.0,81,0.00,CLR,,0.00,WeatherDisplay:10.37,2013-02-22 08:47:00,
2013-02-22 02:52:00,40.5,35.1,29.70,North,0,0.0,0.0,81,0.00,CLR,,0.00,WeatherDisplay:10.37,2013-02-22 08:52:00,
2013-02-22 02:57:00,40.5,35.1,29.70,North,0,0.0,0.0,81,0.00,CLR,,0.00,WeatherDisplay:10.37,2013-02-22 08:57:00,
2013-02-22 03:02:00,40.5,35.1,29.70,North,0,0.0,0.0,81,0.00,CLR,,0.00,WeatherDisplay:10.37,2013-02-22 09:02:00,
2013-02-22 03:07:00,40.5,35.1,29.72,North,0,0.0,0.0,81,0.00,CLR,,0.00,WeatherDisplay:10.37,2013-02-22 09:07:00,
2013-02-22 03:12:00,40.6,35.3,29.71,North,0,0.0,0.0,81,0.00,CLR,,0.00,WeatherDisplay:10.37,2013-02-22 09:12:00,
2013-02-22 03:17:00,40.3,34.9,29.71,North,0,0.0,0.0,81,0.00,CLR,,0.00,WeatherDisplay:10.37,2013-02-22 09:17:00,
2013-02-22 03:22:00,40.1,34.7,29.71,North,0,0.0,0.0,81,0.00,CLR,,0.00,WeatherDisplay:10.37,2013-02-22 09:22:00,
2013-02-22 03:27:00,39.9,34.2,29.72,North,0,0.0,0.0,80,0.00,CLR,,0.00,WeatherDisplay:10.37,2013-02-22 09:27:00,
2013-02-22 03:32:00,39.7,34.1,29.72,North,0,0.0,0.0,80,0.00,CLR,,0.00,WeatherDisplay:10.37,2013-02-22 09:32:00,
2013-02-22 03:38:00,39.6,34.2,29.71,North,0,0.0,0.0,81,0.00,CLR,,0.00,WeatherDisplay:10.37,2013-02-22 09:38:00,
2013-02-22 03:43:00,39.6,34.5,29.71,North,0,0.0,0.0,82,0.00,CLR,,0.00,WeatherDisplay:10.37,2013-02-22 09:43:00,
2013-02-22 03:48:00,39.4,34.3,29.71,North,0,0.0,0.0,82,0.00,CLR,,0.00,WeatherDisplay:10.37,2013-02-22 09:48:00,
2013-02-22 03:53:00,39.2,34.2,29.71,North,0,0.0,0.0,82,0.00,CLR,,0.00,WeatherDisplay:10.37,2013-02-22 09:53:00,
2013-02-22 03:58:00,39.2,34.2,29.71,North,0,0.0,0.0,82,0.00,CLR,,0.00,WeatherDisplay:10.37,2013-02-22 09:58:00,
2013-02-22 04:03:00,39.2,34.2,29.71,North,0,0.0,0.0,82,0.00,BKN,,0.00,WeatherDisplay:10.37,2013-02-22 10:03:00,
2013-02-22 04:08:00,38.8,33.2,29.72,North,0,0.0,0.0,80,0.00,BKN,,0.00,WeatherDisplay:10.37,2013-02-22 10:08:00,
2013-02-22 04:13:00,38.5,32.2,29.73,North,0,0.0,0.0,78,0.00,BKN,,0.00,WeatherDisplay:10.37,2013-02-22 10:13:00,
2013-02-22 04:18:00,37.9,31.4,29.73,North,0,0.0,0.0,77,0.00,BKN,,0.00,WeatherDisplay:10.37,2013-02-22 10:18:00,
2013-02-22 04:23:00,37.4,30.5,29.74,North,0,0.0,0.0,76,0.00,BKN,,0.00,WeatherDisplay:10.37,2013-02-22 10:23:00,
2013-02-22 04:28:00,37.2,30.3,29.75,North,0,0.0,0.0,76,0.00,BKN,,0.00,WeatherDisplay:10.37,2013-02-22 10:28:00,
2013-02-22 04:33:00,37.0,30.2,29.77,North,0,0.0,0.0,76,0.00,BKN,,0.00,WeatherDisplay:10.37,2013-02-22 10:33:00,
2013-02-22 04:38:00,37.0,29.8,29.78,North,0,0.0,0.0,75,0.00,BKN,,0.00,WeatherDisplay:10.37,2013-02-22 10:38:00,
2013-02-22 04:43:00,37.0,29.8,29.78,North,0,0.0,0.0,75,0.00,BKN,,0.00,WeatherDisplay:10.37,2013-02-22 10:43:00,
2013-02-22 04:48:00,36.9,29.7,29.78,North,0,0.0,0.0,75,0.00,BKN,,0.00,WeatherDisplay:10.37,2013-02-22 10:48:00,
2013-02-22 04:53:00,36.5,29.7,29.79,North,0,0.0,0.0,76,0.00,BKN,,0.00,WeatherDisplay:10.37,2013-02-22 10:53:00,
2013-02-22 04:58:00,36.5,29.7,29.79,North,0,0.0,0.0,76,0.00,BKN,,0.00,WeatherDisplay:10.37,2013-02-22 10:58:00,
2013-02-22 05:03:00,36.3,29.2,29.80,North,0,0.0,0.0,75,0.00,OVC,,0.00,WeatherDisplay:10.37,2013-02-22 11:03:00,
2013-02-22 05:08:00,36.1,29.0,29.80,North,0,0.0,0.0,75,0.00,OVC,,0.00,WeatherDisplay:10.37,2013-02-22 11:08:00,
2013-02-22 05:13:00,35.8,28.6,29.81,North,0,0.0,0.0,75,0.00,OVC,,0.00,WeatherDisplay:10.37,2013-02-22 11:13:00,
2013-02-22 05:19:00,35.8,28.6,29.81,North,0,0.0,0.0,75,0.00,OVC,,0.00,WeatherDisplay:10.37,2013-02-22 11:19:00,
2013-02-22 05:24:00,35.8,28.6,29.82,North,0,0.0,0.0,75,0.00,OVC,,0.00,WeatherDisplay:10.37,2013-02-22 11:24:00,
2013-02-22 05:29:00,35.8,28.3,29.82,North,0,0.0,0.0,74,0.00,OVC,,0.00,WeatherDisplay:10.37,2013-02-22 11:29:00,
2013-02-22 05:34:00,35.6,28.5,29.82,North,0,0.0,0.0,75,0.00,OVC,,0.00,WeatherDisplay:10.37,2013-02-22 11:34:00,
2013-02-22 05:39:00,35.4,28.6,29.82,North,0,0.0,0.0,76,0.00,OVC,,0.00,WeatherDisplay:10.37,2013-02-22 11:39:00,
2013-02-22 05:44:00,35.1,28.3,29.82,North,0,0.0,0.0,76,0.00,OVC,,0.00,WeatherDisplay:10.37,2013-02-22 11:44:00,
2013-02-22 05:49:00,34.9,28.1,29.82,North,0,0.0,0.0,76,0.00,OVC,,0.00,WeatherDisplay:10.37,2013-02-22 11:49:00,
2013-02-22 05:54:00,34.9,28.1,29.82,North,0,0.0,0.0,76,0.00,OVC,,0.00,WeatherDisplay:10.37,2013-02-22 11:54:00,
2013-02-22 05:59:00,34.7,28.2,29.82,North,0,0.0,0.0,77,0.00,OVC,,0.00,WeatherDisplay:10.37,2013-02-22 11:59:00,
2013-02-22 06:04:00,34.7,28.2,29.83,North,0,0.0,0.0,77,0.00,BKN,,0.00,WeatherDisplay:10.37,2013-02-22 12:04:00,
2013-02-22 06:09:00,34.7,28.2,29.82,North,0,0.0,0.0,77,0.00,BKN,,0.00,WeatherDisplay:10.37,2013-02-22 12:09:00,
2013-02-22 06:14:00,34.5,28.4,29.82,North,0,0.0,0.0,78,0.00,BKN,,0.00,WeatherDisplay:10.37,2013-02-22 12:14:00,
2013-02-22 06:19:00,34.3,28.2,29.82,North,0,0.0,0.0,78,0.00,BKN,,0.00,WeatherDisplay:10.37,2013-02-22 12:19:00,
2013-02-22 06:24:00,34.2,28.0,29.82,North,0,0.0,0.0,78,0.00,BKN,,0.00,WeatherDisplay:10.37,2013-02-22 12:24:00,
2013-02-22 06:29:00,34.2,28.0,29.82,North,0,0.0,0.0,78,0.00,BKN,,0.00,WeatherDisplay:10.37,2013-02-22 12:29:00,
2013-02-22 06:34:00,34.0,27.8,29.82,North,0,0.0,0.0,78,0.00,BKN,,0.00,WeatherDisplay:10.37,2013-02-22 12:34:00,
2013-02-22 06:39:00,34.0,28.2,29.82,North,0,0.0,0.0,79,0.00,BKN,,0.00,WeatherDisplay:10.37,2013-02-22 12:39:00,
2013-02-22 06:44:00,34.0,28.2,29.82,North,0,0.0,0.0,79,0.00,BKN,,0.00,WeatherDisplay:10.37,2013-02-22 12:44:00,
2013-02-22 06:49:00,34.0,28.2,29.82,North,0,0.0,0.0,79,0.00,BKN,,0.00,WeatherDisplay:10.37,2013-02-22 12:49:00,
2013-02-22 06:54:00,33.8,28.0,29.82,North,0,0.0,0.0,79,0.00,BKN,,0.00,WeatherDisplay:10.37,2013-02-22 12:54:00,
2013-02-22 06:59:00,33.8,28.0,29.82,North,0,0.0,0.0,79,0.00,BKN,,0.00,WeatherDisplay:10.37,2013-02-22 12:59:00,
2013-02-22 07:04:00,33.6,27.5,29.83,North,0,0.0,0.0,78,0.00,CLR,,0.00,WeatherDisplay:10.37,2013-02-22 13:04:00,
2013-02-22 07:09:00,33.4,27.3,29.84,North,0,0.0,0.0,78,0.00,CLR,,0.00,WeatherDisplay:10.37,2013-02-22 13:09:00,
2013-02-22 07:14:00,33.4,27.0,29.85,North,0,0.0,0.0,77,0.00,CLR,,0.00,WeatherDisplay:10.37,2013-02-22 13:14:00,
2013-02-22 07:19:00,33.4,27.0,29.86,North,0,0.0,0.0,77,0.00,CLR,,0.00,WeatherDisplay:10.37,2013-02-22 13:19:00,
2013-02-22 07:24:00,33.4,27.0,29.86,North,0,0.0,0.0,77,0.00,CLR,,0.00,WeatherDisplay:10.37,2013-02-22 13:24:00,
2013-02-22 07:29:00,33.4,26.7,29.86,North,0,0.0,0.0,76,0.00,CLR,,0.00,WeatherDisplay:10.37,2013-02-22 13:29:00,
2013-02-22 07:34:00,33.6,26.9,29.87,North,0,0.0,0.0,76,0.00,CLR,,0.00,WeatherDisplay:10.37,2013-02-22 13:34:00,
2013-02-22 07:39:00,33.6,26.9,29.87,North,0,0.0,0.0,76,0.00,CLR,,0.00,WeatherDisplay:10.37,2013-02-22 13:39:00,
2013-02-22 07:44:00,33.6,26.9,29.87,North,0,0.0,0.0,76,0.00,CLR,,0.00,WeatherDisplay:10.37,2013-02-22 13:44:00,
2013-02-22 07:50:00,33.6,26.9,29.87,North,0,0.0,0.0,76,0.00,CLR,,0.00,WeatherDisplay:10.37,2013-02-22 13:50:00,
2013-02-22 07:55:00,33.6,26.9,29.87,North,0,0.0,0.0,76,0.00,CLR,,0.00,WeatherDisplay:10.37,2013-02-22 13:55:00,
2013-02-22 08:00:00,33.6,26.9,29.87,North,0,0.0,0.0,76,0.00,CLR,,0.00,WeatherDisplay:10.37,2013-02-22 14:00:00,
2013-02-22 08:05:00,33.6,26.9,29.87,North,0,0.0,0.0,76,0.00,CLR,,0.00,WeatherDisplay:10.37,2013-02-22 14:05:00,
2013-02-22 08:10:00,33.6,27.2,29.87,North,0,0.0,0.0,77,0.00,CLR,,0.00,WeatherDisplay:10.37,2013-02-22 14:10:00,
2013-02-22 08:15:00,33.8,27.0,29.87,North,0,0.0,0.0,76,0.00,CLR,,0.00,WeatherDisplay:10.37,2013-02-22 14:15:00,
2013-02-22 08:20:00,34.0,26.9,29.88,North,0,0.0,0.0,75,0.00,CLR,,0.00,WeatherDisplay:10.37,2013-02-22 14:20:00,
2013-02-22 08:25:00,34.2,27.1,29.88,North,0,0.0,0.0,75,0.00,CLR,,0.00,WeatherDisplay:10.37,2013-02-22 14:25:00,
2013-02-22 08:30:00,34.2,26.7,29.88,North,0,0.0,0.0,74,0.00,CLR,,0.00,WeatherDisplay:10.37,2013-02-22 14:30:00,
2013-02-22 08:35:00,34.2,26.7,29.88,North,0,0.0,0.0,74,0.00,CLR,,0.00,WeatherDisplay:10.37,2013-02-22 14:35:00,
2013-02-22 08:40:00,34.3,26.9,29.88,North,0,0.0,0.0,74,0.00,CLR,,0.00,WeatherDisplay:10.37,2013-02-22 14:40:00,
2013-02-22 08:45:00,34.3,26.9,29.88,North,0,0.0,0.0,74,0.00,CLR,,0.00,WeatherDisplay:10.37,2013-02-22 14:45:00,
2013-02-22 08:50:00,34.3,26.6,29.89,North,0,0.0,0.0,73,0.00,CLR,,0.00,WeatherDisplay:10.37,2013-02-22 14:50:00,
2013-02-22 08:55:00,34.5,26.1,29.89,North,0,0.0,0.0,71,0.00,CLR,,0.00,WeatherDisplay:10.37,2013-02-22 14:55:00,
2013-02-22 09:00:00,34.5,25.7,29.89,North,0,0.0,0.0,70,0.00,CLR,,0.00,WeatherDisplay:10.37,2013-02-22 15:00:00,
2013-02-22 09:05:00,34.9,25.0,29.89,North,0,0.0,0.0,67,0.00,CLR,,0.00,WeatherDisplay:10.37,2013-02-22 15:05:00,
2013-02-22 09:10:00,34.9,25.0,29.89,North,0,0.0,0.0,67,0.00,CLR,,0.00,WeatherDisplay:10.37,2013-02-22 15:10:00,
2013-02-22 09:15:00,34.9,23.9,29.88,North,0,0.0,0.0,64,0.00,CLR,,0.00,WeatherDisplay:10.37,2013-02-22 15:15:00,
2013-02-22 09:21:00,35.1,24.5,29.88,North,0,0.0,0.0,65,0.00,CLR,,0.00,WeatherDisplay:10.37,2013-02-22 15:21:00,
2013-02-22 09:26:00,35.2,24.3,29.88,North,0,0.0,0.0,64,0.00,CLR,,0.00,WeatherDisplay:10.37,2013-02-22 15:26:00,
2013-02-22 09:31:00,35.4,23.7,29.89,North,0,0.0,0.0,62,0.00,CLR,,0.00,WeatherDisplay:10.37,2013-02-22 15:31:00,
2013-02-22 09:36:00,35.6,23.5,29.89,North,0,0.0,0.0,61,0.00,CLR,,0.00,WeatherDisplay:10.37,2013-02-22 15:36:00,
2013-02-22 09:41:00,35.2,22.7,29.88,North,0,0.0,0.0,60,0.00,CLR,,0.00,WeatherDisplay:10.37,2013-02-22 15:41:00,
2013-02-22 09:46:00,35.2,22.7,29.88,North,0,0.0,0.0,60,0.00,CLR,,0.00,WeatherDisplay:10.37,2013-02-22 15:46:00,
2013-02-22 09:51:00,35.4,22.9,29.88,North,0,0.0,0.0,60,0.00,CLR,,0.00,WeatherDisplay:10.37,2013-02-22 15:51:00,
2013-02-22 09:56:00,35.4,22.5,29.89,North,0,0.0,0.0,59,0.00,CLR,,0.00,WeatherDisplay:10.37,2013-02-22 15:56:00,
2013-02-22 10:01:00,35.4,22.5,29.88,North,0,0.0,0.0,59,0.00,CLR,,0.00,WeatherDisplay:10.37,2013-02-22 16:01:00,
2013-02-22 10:06:00,35.6,23.1,29.87,North,0,0.0,0.0,60,0.00,CLR,,0.00,WeatherDisplay:10.37,2013-02-22 16:06:00,
2013-02-22 10:11:00,35.8,22.8,29.87,North,0,0.0,0.0,59,0.00,CLR,,0.00,WeatherDisplay:10.37,2013-02-22 16:11:00,
2013-02-22 10:16:00,36.1,23.6,29.87,North,0,0.0,0.0,60,0.00,CLR,,0.00,WeatherDisplay:10.37,2013-02-22 16:16:00,
2013-02-22 10:21:00,36.5,23.5,29.87,North,0,0.0,0.0,59,0.00,CLR,,0.00,WeatherDisplay:10.37,2013-02-22 16:21:00,
2013-02-22 10:26:00,36.7,23.3,29.86,North,0,0.0,0.0,58,0.00,CLR,,0.00,WeatherDisplay:10.37,2013-02-22 16:26:00,
2013-02-22 10:31:00,36.7,23.3,29.87,North,0,0.0,0.0,58,0.00,CLR,,0.00,WeatherDisplay:10.37,2013-02-22 16:31:00,
2013-02-22 10:36:00,37.0,24.0,29.86,North,0,0.0,0.0,59,0.00,CLR,,0.00,WeatherDisplay:10.37,2013-02-22 16:36:00,
2013-02-22 10:41:00,37.6,24.5,29.87,North,0,0.0,0.0,59,0.00,CLR,,0.00,WeatherDisplay:10.37,2013-02-22 16:41:00,
2013-02-22 10:46:00,37.9,24.9,29.87,North,0,0.0,0.0,59,0.00,CLR,,0.00,WeatherDisplay:10.37,2013-02-22 16:46:00,
2013-02-22 10:51:00,38.1,23.4,29.86,North,0,0.0,0.0,55,0.00,CLR,,0.00,WeatherDisplay:10.37,2013-02-22 16:51:00,
2013-02-22 10:56:00,38.1,23.4,29.86,North,0,0.0,0.0,55,0.00,CLR,,0.00,WeatherDisplay:10.37,2013-02-22 16:56:00,
2013-02-22 11:01:00,38.3,23.1,29.86,North,0,0.0,0.0,54,0.00,CLR,,0.00,WeatherDisplay:10.37,2013-02-22 17:01:00,
2013-02-22 11:06:00,38.5,23.7,29.85,North,0,0.0,0.0,55,0.00,CLR,,0.00,WeatherDisplay:10.37,2013-02-22 17:06:00,
2013-02-22 11:11:00,38.7,23.4,29.86,North,0,0.0,0.0,54,0.00,CLR,,0.00,WeatherDisplay:10.37,2013-02-22 17:11:00,
2013-02-22 11:16:00,39.0,23.8,29.86,North,0,0.0,0.0,54,0.00,CLR,,0.00,WeatherDisplay:10.37,2013-02-22 17:16:00,
2013-02-22 11:21:00,39.2,23.9,29.86,North,0,0.0,0.0,54,0.00,CLR,,0.00,WeatherDisplay:10.37,2013-02-22 17:21:00,
2013-02-22 11:26:00,39.4,24.1,29.85,North,0,0.0,0.0,54,0.00,CLR,,0.00,WeatherDisplay:10.37,2013-02-22 17:26:00,
2013-02-22 11:31:00,39.6,24.3,29.85,North,0,0.0,0.0,54,0.00,CLR,,0.00,WeatherDisplay:10.37,2013-02-22 17:31:00,
2013-02-22 11:36:00,39.6,24.3,29.85,North,0,0.0,0.0,54,0.00,CLR,,0.00,WeatherDisplay:10.37,2013-02-22 17:36:00,
2013-02-22 11:41:00,39.9,25.5,29.85,North,0,0.0,0.0,56,0.00,CLR,,0.00,WeatherDisplay:10.37,2013-02-22 17:41:00,
2013-02-22 11:46:00,40.3,24.0,29.85,North,0,0.0,0.0,52,0.00,CLR,,0.00,WeatherDisplay:10.37,2013-02-22 17:46:00,
2013-02-22 11:51:00,40.3,24.0,29.84,North,0,0.0,0.0,52,0.00,CLR,,0.00,WeatherDisplay:10.37,2013-02-22 17:51:00,
2013-02-22 11:56:00,40.6,25.3,29.84,North,0,0.0,0.0,54,0.00,CLR,,0.00,WeatherDisplay:10.37,2013-02-22 17:56:00,
2013-02-22 12:01:00,40.8,25.4,29.84,North,0,0.0,0.0,54,0.00,CLR,,0.00,WeatherDisplay:10.37,2013-02-22 18:01:00,
2013-02-22 12:06:00,41.2,24.9,29.84,North,0,0.0,0.0,52,0.00,CLR,,0.00,WeatherDisplay:10.37,2013-02-22 18:06:00,
2013-02-22 12:11:00,41.2,25.3,29.83,North,0,0.0,0.0,53,0.00,CLR,,0.00,WeatherDisplay:10.37,2013-02-22 18:11:00,
2013-02-22 12:16:00,41.4,24.6,29.84,North,0,0.0,0.0,51,0.00,CLR,,0.00,WeatherDisplay:10.37,2013-02-22 18:16:00,
2013-02-22 12:21:00,41.4,25.0,29.83,North,0,0.0,0.0,52,0.00,CLR,,0.00,WeatherDisplay:10.37,2013-02-22 18:21:00,
2013-02-22 12:26:00,41.5,25.2,29.83,North,0,0.0,0.0,52,0.00,CLR,,0.00,WeatherDisplay:10.37,2013-02-22 18:26:00,
2013-02-22 12:31:00,41.9,25.5,29.84,North,0,0.0,0.0,52,0.00,CLR,,0.00,WeatherDisplay:10.37,2013-02-22 18:31:00,
2013-02-22 12:36:00,42.1,25.7,29.84,North,0,0.0,0.0,52,0.00,CLR,,0.00,WeatherDisplay:10.37,2013-02-22 18:36:00,
2013-02-22 12:41:00,42.1,24.8,29.84,North,0,0.0,0.0,50,0.00,CLR,,0.00,WeatherDisplay:10.37,2013-02-22 18:41:00,
2013-02-22 12:46:00,41.9,24.6,29.84,North,0,0.0,0.0,50,0.00,CLR,,0.00,WeatherDisplay:10.37,2013-02-22 18:46:00,
2013-02-22 12:51:00,41.7,24.9,29.84,North,0,0.0,0.0,51,0.00,CLR,,0.00,WeatherDisplay:10.37,2013-02-22 18:51:00,
2013-02-22 12:56:00,42.1,24.8,29.83,North,0,0.0,0.0,50,0.00,CLR,,0.00,WeatherDisplay:10.37,2013-02-22 18:56:00,
2013-02-22 13:01:00,41.7,23.9,29.82,North,0,0.0,0.0,49,0.00,CLR,,0.00,WeatherDisplay:10.37,2013-02-22 19:01:00,
2013-02-22 13:06:00,41.7,24.9,29.82,North,0,0.0,0.0,51,0.00,CLR,,0.00,WeatherDisplay:10.37,2013-02-22 19:06:00,
2013-02-22 13:11:00,41.7,24.9,29.82,North,0,0.0,0.0,51,0.00,CLR,,0.00,WeatherDisplay:10.37,2013-02-22 19:11:00,
2013-02-22 13:16:00,41.9,26.4,29.82,North,0,0.0,0.0,54,0.00,CLR,,0.00,WeatherDisplay:10.37,2013-02-22 19:16:00,
2013-02-22 13:21:00,42.1,25.7,29.82,North,0,0.0,0.0,52,0.00,CLR,,0.00,WeatherDisplay:10.37,2013-02-22 19:21:00,
2013-02-22 13:26:00,42.1,25.7,29.81,North,0,0.0,0.0,52,0.00,CLR,,0.00,WeatherDisplay:10.37,2013-02-22 19:26:00,
2013-02-22 13:31:00,42.3,25.4,29.81,North,0,0.0,0.0,51,0.00,CLR,,0.00,WeatherDisplay:10.37,2013-02-22 19:31:00,
2013-02-22 13:36:00,42.3,25.4,29.81,North,0,0.0,0.0,51,0.00,CLR,,0.00,WeatherDisplay:10.37,2013-02-22 19:36:00,
2013-02-22 13:41:00,42.1,25.2,29.80,North,0,0.0,0.0,51,0.00,CLR,,0.00,WeatherDisplay:10.37,2013-02-22 19:41:00,
2013-02-22 13:46:00,42.4,26.5,29.79,North,0,0.0,0.0,53,0.00,CLR,,0.00,WeatherDisplay:10.37,2013-02-22 19:46:00,
2013-02-22 13:51:00,43.0,27.0,29.79,North,0,0.0,0.0,53,0.00,CLR,,0.00,WeatherDisplay:10.37,2013-02-22 19:51:00,
2013-02-22 13:56:00,43.3,27.3,29.79,North,0,0.0,0.0,53,0.00,CLR,,0.00,WeatherDisplay:10.37,2013-02-22 19:56:00,
2013-02-22 14:01:00,43.5,27.0,29.78,North,0,0.0,0.0,52,0.00,CLR,,0.00,WeatherDisplay:10.37,2013-02-22 20:01:00,
2013-02-22 14:06:00,43.7,27.2,29.78,North,0,0.0,0.0,52,0.00,CLR,,0.00,WeatherDisplay:10.37,2013-02-22 20:06:00,
2013-02-22 14:11:00,44.1,28.0,29.77,North,0,0.0,0.0,53,0.00,CLR,,0.00,WeatherDisplay:10.37,2013-02-22 20:11:00,
2013-02-22 14:16:00,44.6,28.0,29.78,North,0,0.0,0.0,52,0.00,CLR,,0.00,WeatherDisplay:10.37,2013-02-22 20:16:00,
2013-02-22 14:21:00,45.0,27.9,29.77,North,0,0.0,0.0,51,0.00,CLR,,0.00,WeatherDisplay:10.37,2013-02-22 20:21:00,
2013-02-22 14:26:00,45.0,27.9,29.77,North,0,0.0,0.0,51,0.00,CLR,,0.00,WeatherDisplay:10.37,2013-02-22 20:26:00,
2013-02-22 14:31:00,45.3,27.8,29.77,North,0,0.0,0.0,50,0.00,CLR,,0.00,WeatherDisplay:10.37,2013-02-22 20:31:00,
2013-02-22 14:36:00,45.3,28.2,29.77,North,0,0.0,0.0,51,0.00,CLR,,0.00,WeatherDisplay:10.37,2013-02-22 20:36:00,
2013-02-22 14:41:00,45.5,27.9,29.77,North,0,0.0,0.0,50,0.00,CLR,,0.00,WeatherDisplay:10.37,2013-02-22 20:41:00,
2013-02-22 14:46:00,45.5,28.9,29.77,North,0,0.0,0.0,52,0.00,CLR,,0.00,WeatherDisplay:10.37,2013-02-22 20:46:00,
2013-02-22 14:51:00,45.7,27.6,29.77,North,0,0.0,0.0,49,0.00,CLR,,0.00,WeatherDisplay:10.37,2013-02-22 20:51:00,
2013-02-22 14:56:00,45.7,27.6,29.77,North,0,0.0,0.0,49,0.00,CLR,,0.00,WeatherDisplay:10.37,2013-02-22 20:56:00,
2013-02-22 15:01:00,45.9,28.7,29.77,North,0,0.0,0.0,51,0.00,CLR,,0.00,WeatherDisplay:10.37,2013-02-22 21:01:00,
2013-02-22 15:07:00,46.2,29.1,29.76,North,0,0.0,0.0,51,0.00,CLR,,0.00,WeatherDisplay:10.37,2013-02-22 21:07:00,
2013-02-22 15:12:00,46.4,29.2,29.76,North,0,0.0,0.0,51,0.00,CLR,,0.00,WeatherDisplay:10.37,2013-02-22 21:12:00,
2013-02-22 15:17:00,46.6,29.4,29.76,North,0,0.0,0.0,51,0.00,CLR,,0.00,WeatherDisplay:10.37,2013-02-22 21:17:00,
2013-02-22 15:22:00,46.8,29.1,29.76,North,0,0.0,0.0,50,0.00,CLR,,0.00,WeatherDisplay:10.37,2013-02-22 21:22:00,
2013-02-22 15:27:00,47.3,29.1,29.76,North,0,0.0,0.0,49,0.00,CLR,,0.00,WeatherDisplay:10.37,2013-02-22 21:27:00,
2013-02-22 15:32:00,47.5,29.3,29.75,North,0,0.0,0.0,49,0.00,CLR,,0.00,WeatherDisplay:10.37,2013-02-22 21:32:00,
2013-02-22 15:37:00,47.7,29.4,29.76,North,0,0.0,0.0,49,0.00,CLR,,0.00,WeatherDisplay:10.37,2013-02-22 21:37:00,
2013-02-22 15:42:00,47.7,29.4,29.76,North,0,0.0,0.0,49,0.00,CLR,,0.00,WeatherDisplay:10.37,2013-02-22 21:42:00,
2013-02-22 15:47:00,47.7,29.4,29.76,North,0,0.0,0.0,49,0.00,CLR,,0.00,WeatherDisplay:10.37,2013-02-22 21:47:00,
2013-02-22 15:52:00,47.7,29.4,29.75,North,0,0.0,0.0,49,0.00,CLR,,0.00,WeatherDisplay:10.37,2013-02-22 21:52:00,
2013-02-22 15:57:00,47.8,30.1,29.75,North,0,0.0,0.0,50,0.00,CLR,,0.00,WeatherDisplay:10.37,2013-02-22 21:57:00,
2013-02-22 16:02:00,48.0,29.2,29.75,North,0,0.0,0.0,48,0.00,CLR,,0.00,WeatherDisplay:10.37,2013-02-22 22:02:00,
2013-02-22 16:07:00,47.8,28.6,29.76,North,0,0.0,0.0,47,0.00,CLR,,0.00,WeatherDisplay:10.37,2013-02-22 22:07:00,
2013-02-22 16:12:00,48.0,28.7,29.75,North,0,0.0,0.0,47,0.00,CLR,,0.00,WeatherDisplay:10.37,2013-02-22 22:12:00,
2013-02-22 16:17:00,48.2,28.9,29.75,North,0,0.0,0.0,47,0.00,CLR,,0.00,WeatherDisplay:10.37,2013-02-22 22:17:00,
2013-02-22 16:22:00,48.4,29.6,29.75,North,0,0.0,0.0,48,0.00,CLR,,0.00,WeatherDisplay:10.37,2013-02-22 22:22:00,
2013-02-22 16:27:00,48.6,29.7,29.75,North,0,0.0,0.0,48,0.00,CLR,,0.00,WeatherDisplay:10.37,2013-02-22 22:27:00,
2013-02-22 16:32:00,48.9,29.0,29.76,North,0,0.0,0.0,46,0.00,CLR,,0.00,WeatherDisplay:10.37,2013-02-22 22:32:00,
2013-02-22 16:37:00,48.7,29.4,29.76,North,0,0.0,0.0,47,0.00,CLR,,0.00,WeatherDisplay:10.37,2013-02-22 22:37:00,
2013-02-22 16:42:00,48.7,29.4,29.76,North,0,0.0,0.0,47,0.00,CLR,,0.00,WeatherDisplay:10.37,2013-02-22 22:42:00,
2013-02-22 16:47:00,48.4,29.1,29.75,North,0,0.0,0.0,47,0.00,CLR,,0.00,WeatherDisplay:10.37,2013-02-22 22:47:00,
2013-02-22 16:52:00,48.4,29.1,29.76,North,0,0.0,0.0,47,0.00,CLR,,0.00,WeatherDisplay:10.37,2013-02-22 22:52:00,
2013-02-22 16:57:00,48.7,29.4,29.76,North,0,0.0,0.0,47,0.00,CLR,,0.00,WeatherDisplay:10.37,2013-02-22 22:57:00,
2013-02-22 17:02:00,49.1,29.7,29.76,North,0,0.0,0.0,47,0.00,CLR,,0.00,WeatherDisplay:10.37,2013-02-22 23:02:00,
2013-02-22 17:07:00,48.7,29.4,29.75,North,0,0.0,0.0,47,0.00,CLR,,0.00,WeatherDisplay:10.37,2013-02-22 23:07:00,
2013-02-22 17:12:00,48.4,29.1,29.76,North,0,0.0,0.0,47,0.00,CLR,,0.00,WeatherDisplay:10.37,2013-02-22 23:12:00,
2013-02-22 17:17:00,48.2,29.4,29.76,North,0,0.0,0.0,48,0.00,CLR,,0.00,WeatherDisplay:10.37,2013-02-22 23:17:00,
2013-02-22 17:22:00,48.0,29.7,29.76,North,0,0.0,0.0,49,0.00,CLR,,0.00,WeatherDisplay:10.37,2013-02-22 23:22:00,
2013-02-22 17:27:00,47.8,29.6,29.76,North,0,0.0,0.0,49,0.00,CLR,,0.00,WeatherDisplay:10.37,2013-02-22 23:27:00,
2013-02-22 17:32:00,47.8,30.1,29.76,North,0,0.0,0.0,50,0.00,CLR,,0.00,WeatherDisplay:10.37,2013-02-22 23:32:00,
2013-02-22 17:37:00,47.8,30.1,29.77,North,0,0.0,0.0,50,0.00,CLR,,0.00,WeatherDisplay:10.37,2013-02-22 23:37:00,
2013-02-22 17:42:00,47.8,30.1,29.77,North,0,0.0,0.0,50,0.00,CLR,,0.00,WeatherDisplay:10.37,2013-02-22 23:42:00,
2013-02-22 17:47:00,47.7,29.9,29.77,North,0,0.0,0.0,50,0.00,CLR,,0.00,WeatherDisplay:10.37,2013-02-22 23:47:00,
2013-02-22 17:53:00,47.7,29.9,29.77,North,0,0.0,0.0,50,0.00,CLR,,0.00,WeatherDisplay:10.37,2013-02-22 23:53:00,
2013-02-22 17:58:00,47.5,30.2,29.77,North,0,0.0,0.0,51,0.00,CLR,,0.00,WeatherDisplay:10.37,2013-02-22 23:58:00,
2013-02-22 18:03:00,47.3,30.1,29.77,North,0,0.0,0.0,51,0.00,CLR,,0.00,WeatherDisplay:10.37,2013-02-23 00:03:00,
2013-02-22 18:08:00,47.1,29.9,29.77,North,0,0.0,0.0,51,0.00,CLR,,0.00,WeatherDisplay:10.37,2013-02-23 00:08:00,
2013-02-22 18:13:00,46.9,30.2,29.78,North,0,0.0,0.0,52,0.00,CLR,,0.00,WeatherDisplay:10.37,2013-02-23 00:13:00,
2013-02-22 18:18:00,46.8,30.0,29.78,North,0,0.0,0.0,52,0.00,CLR,,0.00,WeatherDisplay:10.37,2013-02-23 00:18:00,
2013-02-22 18:23:00,46.8,30.0,29.78,North,0,0.0,0.0,52,0.00,CLR,,0.00,WeatherDisplay:10.37,2013-02-23 00:23:00,
2013-02-22 18:28:00,46.8,30.0,29.79,North,0,0.0,0.0,52,0.00,CLR,,0.00,WeatherDisplay:10.37,2013-02-23 00:28:00,
2013-02-22 18:33:00,46.8,30.5,29.80,North,0,0.0,0.0,53,0.00,CLR,,0.00,WeatherDisplay:10.37,2013-02-23 00:33:00,
2013-02-22 18:38:00,46.6,30.3,29.80,North,0,0.0,0.0,53,0.00,CLR,,0.00,WeatherDisplay:10.37,2013-02-23 00:38:00,
2013-02-22 18:43:00,46.4,30.2,29.80,North,0,0.0,0.0,53,0.00,CLR,,0.00,WeatherDisplay:10.37,2013-02-23 00:43:00,
2013-02-22 18:48:00,46.0,30.3,29.80,North,0,0.0,0.0,54,0.00,CLR,,0.00,WeatherDisplay:10.37,2013-02-23 00:48:00,
2013-02-22 18:53:00,45.9,30.1,29.81,North,0,0.0,0.0,54,0.00,CLR,,0.00,WeatherDisplay:10.37,2013-02-23 00:53:00,
2013-02-22 18:58:00,45.7,30.4,29.81,North,0,0.0,0.0,55,0.00,CLR,,0.00,WeatherDisplay:10.37,2013-02-23 00:58:00,
2013-02-22 19:03:00,45.7,30.4,29.82,North,0,0.0,0.0,55,0.00,CLR,,0.00,WeatherDisplay:10.37,2013-02-23 01:03:00,
2013-02-22 19:08:00,45.5,30.3,29.82,North,0,0.0,0.0,55,0.00,CLR,,0.00,WeatherDisplay:10.37,2013-02-23 01:08:00,
2013-02-22 19:13:00,45.5,30.3,29.81,North,0,0.0,0.0,55,0.00,CLR,,0.00,WeatherDisplay:10.37,2013-02-23 01:13:00,
2013-02-22 19:18:00,45.5,30.7,29.82,North,0,0.0,0.0,56,0.00,CLR,,0.00,WeatherDisplay:10.37,2013-02-23 01:18:00,
2013-02-22 19:23:00,45.1,30.4,29.81,North,0,0.0,0.0,56,0.00,CLR,,0.00,WeatherDisplay:10.37,2013-02-23 01:23:00,
2013-02-22 19:28:00,45.0,30.6,29.82,North,0,0.0,0.0,57,0.00,CLR,,0.00,WeatherDisplay:10.37,2013-02-23 01:28:00,
2013-02-22 19:33:00,44.6,29.9,29.83,North,0,0.0,0.0,56,0.00,CLR,,0.00,WeatherDisplay:10.37,2013-02-23 01:33:00,
2013-02-22 19:38:00,44.2,30.0,29.84,North,0,0.0,0.0,57,0.00,CLR,,0.00,WeatherDisplay:10.37,2013-02-23 01:38:00,
2013-02-22 19:43:00,44.1,29.8,29.84,North,0,0.0,0.0,57,0.00,CLR,,0.00,WeatherDisplay:10.37,2013-02-23 01:43:00,
2013-02-22 19:48:00,43.9,29.6,29.84,North,0,0.0,0.0,57,0.00,CLR,,0.00,WeatherDisplay:10.37,2013-02-23 01:48:00,
2013-02-22 19:53:00,43.7,29.5,29.84,North,0,0.0,0.0,57,0.00,CLR,,0.00,WeatherDisplay:10.37,2013-02-23 01:53:00,
2013-02-22 19:58:00,43.5,29.7,29.84,North,0,0.0,0.0,58,0.00,CLR,,0.00,WeatherDisplay:10.37,2013-02-23 01:58:00,
2013-02-22 20:03:00,43.3,29.5,29.84,North,0,0.0,0.0,58,0.00,CLR,,0.00,WeatherDisplay:10.37,2013-02-23 02:03:00,
2013-02-22 20:08:00,43.2,29.4,29.84,North,0,0.0,0.0,58,0.00,CLR,,0.00,WeatherDisplay:10.37,2013-02-23 02:08:00,
2013-02-22 20:13:00,43.2,29.4,29.85,North,0,0.0,0.0,58,0.00,CLR,,0.00,WeatherDisplay:10.37,2013-02-23 02:13:00,
2013-02-22 20:18:00,43.2,29.4,29.85,North,0,0.0,0.0,58,0.00,CLR,,0.00,WeatherDisplay:10.37,2013-02-23 02:18:00,
2013-02-22 20:23:00,43.0,29.2,29.84,North,0,0.0,0.0,58,0.00,CLR,,0.00,WeatherDisplay:10.37,2013-02-23 02:23:00,
2013-02-22 20:28:00,43.0,29.2,29.84,North,0,0.0,0.0,58,0.00,CLR,,0.00,WeatherDisplay:10.37,2013-02-23 02:28:00,
2013-02-22 20:33:00,42.8,29.5,29.84,North,0,0.0,0.0,59,0.00,CLR,,0.00,WeatherDisplay:10.37,2013-02-23 02:33:00,
2013-02-22 20:38:00,42.6,29.3,29.84,North,0,0.0,0.0,59,0.00,CLR,,0.00,WeatherDisplay:10.37,2013-02-23 02:38:00,
2013-02-22 20:44:00,42.4,29.1,29.84,North,0,0.0,0.0,59,0.00,CLR,,0.00,WeatherDisplay:10.37,2013-02-23 02:44:00,
2013-02-22 20:49:00,42.4,29.1,29.84,North,0,0.0,0.0,59,0.00,CLR,,0.00,WeatherDisplay:10.37,2013-02-23 02:49:00,
2013-02-22 20:54:00,42.4,29.1,29.84,North,0,0.0,0.0,59,0.00,CLR,,0.00,WeatherDisplay:10.37,2013-02-23 02:54:00,
2013-02-22 20:59:00,42.3,28.9,29.84,North,0,0.0,0.0,59,0.00,CLR,,0.00,WeatherDisplay:10.37,2013-02-23 02:59:00,
2013-02-22 21:04:00,42.1,28.8,29.85,North,0,0.0,0.0,59,0.00,CLR,,0.00,WeatherDisplay:10.37,2013-02-23 03:04:00,
2013-02-22 21:09:00,42.1,28.8,29.85,North,0,0.0,0.0,59,0.00,CLR,,0.00,WeatherDisplay:10.37,2013-02-23 03:09:00,
2013-02-22 21:14:00,41.9,28.6,29.84,North,0,0.0,0.0,59,0.00,CLR,,0.00,WeatherDisplay:10.37,2013-02-23 03:14:00,
2013-02-22 21:19:00,41.9,28.6,29.84,North,0,0.0,0.0,59,0.00,CLR,,0.00,WeatherDisplay:10.37,2013-02-23 03:19:00,
2013-02-22 21:24:00,41.7,28.4,29.84,North,0,0.0,0.0,59,0.00,CLR,,0.00,WeatherDisplay:10.37,2013-02-23 03:24:00,
2013-02-22 21:29:00,41.7,28.4,29.84,North,0,0.0,0.0,59,0.00,CLR,,0.00,WeatherDisplay:10.37,2013-02-23 03:29:00,
2013-02-22 21:34:00,41.5,28.3,29.84,North,0,0.0,0.0,59,0.00,CLR,,0.00,WeatherDisplay:10.37,2013-02-23 03:34:00,
2013-02-22 21:39:00,41.4,28.1,29.84,North,0,0.0,0.0,59,0.00,CLR,,0.00,WeatherDisplay:10.37,2013-02-23 03:39:00,
2013-02-22 21:44:00,41.4,28.5,29.84,North,0,0.0,0.0,60,0.00,CLR,,0.00,WeatherDisplay:10.37,2013-02-23 03:44:00,
2013-02-22 21:49:00,41.2,28.3,29.84,North,0,0.0,0.0,60,0.00,CLR,,0.00,WeatherDisplay:10.37,2013-02-23 03:49:00,
2013-02-22 21:54:00,41.0,28.6,29.83,North,0,0.0,0.0,61,0.00,CLR,,0.00,WeatherDisplay:10.37,2013-02-23 03:54:00,
2013-02-22 21:59:00,40.8,28.4,29.83,North,0,0.0,0.0,61,0.00,CLR,,0.00,WeatherDisplay:10.37,2013-02-23 03:59:00,
2013-02-22 22:04:00,40.6,28.6,29.83,North,0,0.0,0.0,62,0.00,CLR,,0.00,WeatherDisplay:10.37,2013-02-23 04:04:00,
2013-02-22 22:09:00,40.5,28.5,29.83,North,0,0.0,0.0,62,0.00,CLR,,0.00,WeatherDisplay:10.37,2013-02-23 04:09:00,
2013-02-22 22:14:00,40.3,28.3,29.84,North,0,0.0,0.0,62,0.00,CLR,,0.00,WeatherDisplay:10.37,2013-02-23 04:14:00,
2013-02-22 22:19:00,40.1,28.5,29.84,North,0,0.0,0.0,63,0.00,CLR,,0.00,WeatherDisplay:10.37,2013-02-23 04:19:00,
2013-02-22 22:24:00,39.9,28.3,29.84,North,0,0.0,0.0,63,0.00,CLR,,0.00,WeatherDisplay:10.37,2013-02-23 04:24:00,
2013-02-22 22:29:00,39.9,28.3,29.83,North,0,0.0,0.0,63,0.00,CLR,,0.00,WeatherDisplay:10.37,2013-02-23 04:29:00,
2013-02-22 22:34:00,39.7,28.2,29.83,North,0,0.0,0.0,63,0.00,CLR,,0.00,WeatherDisplay:10.37,2013-02-23 04:34:00,
2013-02-22 22:39:00,39.7,28.2,29.83,North,0,0.0,0.0,63,0.00,CLR,,0.00,WeatherDisplay:10.37,2013-02-23 04:39:00,
2013-02-22 22:44:00,39.6,28.0,29.83,North,0,0.0,0.0,63,0.00,CLR,,0.00,WeatherDisplay:10.37,2013-02-23 04:44:00,
2013-02-22 22:49:00,39.4,27.8,29.82,North,0,0.0,0.0,63,0.00,CLR,,0.00,WeatherDisplay:10.37,2013-02-23 04:49:00,
2013-02-22 22:54:00,39.4,27.8,29.83,North,0,0.0,0.0,63,0.00,CLR,,0.00,WeatherDisplay:10.37,2013-02-23 04:54:00,
2013-02-22 22:59:00,39.2,27.7,29.83,North,0,0.0,0.0,63,0.00,CLR,,0.00,WeatherDisplay:10.37,2013-02-23 04:59:00,
2013-02-22 23:00:00,39.2,27.7,29.83,North,0,0.0,0.0,63,0.00,CLR,,0.00,WeatherDisplay:10.37,2013-02-23 05:00:00,
2013-02-22 23:01:00,39.2,27.7,29.83,North,0,0.0,0.0,63,0.00,CLR,,0.00,WeatherDisplay:10.37,2013-02-23 05:01:00,
2013-02-22 23:02:00,39.2,27.7,29.83,North,0,0.0,0.0,63,0.00,CLR,,0.00,WeatherDisplay:10.37,2013-02-23 05:02:00,
2013-02-22 23:07:00,39.0,27.5,29.83,North,0,0.0,0.0,63,0.00,CLR,,0.00,WeatherDisplay:10.37,2013-02-23 05:07:00,
2013-02-22 23:12:00,39.0,27.5,29.83,North,0,0.0,0.0,63,0.00,CLR,,0.00,WeatherDisplay:10.37,2013-02-23 05:12:00,
2013-02-22 23:17:00,38.8,27.3,29.83,North,0,0.0,0.0,63,0.00,CLR,,0.00,WeatherDisplay:10.37,2013-02-23 05:17:00,
2013-02-22 23:22:00,38.8,27.7,29.83,North,0,0.0,0.0,64,0.00,CLR,,0.00,WeatherDisplay:10.37,2013-02-23 05:22:00,
2013-02-22 23:27:00,38.7,27.1,29.83,North,0,0.0,0.0,63,0.00,CLR,,0.00,WeatherDisplay:10.37,2013-02-23 05:27:00,
2013-02-22 23:32:00,38.7,27.5,29.83,North,0,0.0,0.0,64,0.00,CLR,,0.00,WeatherDisplay:10.37,2013-02-23 05:32:00,
2013-02-22 23:38:00,38.5,27.4,29.83,North,0,0.0,0.0,64,0.00,CLR,,0.00,WeatherDisplay:10.37,2013-02-23 05:38:00,
2013-02-22 23:43:00,38.5,27.4,29.83,North,0,0.0,0.0,64,0.00,CLR,,0.00,WeatherDisplay:10.37,2013-02-23 05:43:00,
2013-02-22 23:48:00,38.5,27.4,29.82,North,0,0.0,0.0,64,0.00,CLR,,0.00,WeatherDisplay:10.37,2013-02-23 05:48:00,
2013-02-22 23:53:00,38.5,27.7,29.82,North,0,0.0,0.0,65,0.00,CLR,,0.00,WeatherDisplay:10.37,2013-02-23 05:53:00,
2013-02-22 23:58:00,38.3,27.6,29.82,North,0,0.0,0.0,65,0.00,CLR,,0.00,WeatherDisplay:10.37,2013-02-23 05:58:00,